Avalon School, Santa Catalina Island Weather observations

Data are for 10 minute period ending at time listed.
 Day   Time   Solar   Ave.   Ave.  Ave.  Vector    Max.   Stn.    Total
  of    of     Rad.   Air    Rel.  Wind   Wind     Wind   Baro.  Precip.
Year   Day            Temp.  Hum.  Speed  Dir.     Gust   Pres.         
2016   (PST)   W/m2    F      %     mph   deg.      mph    mb.     in.  
------------------------------------------------------------------------
 342    1:20    0.0    50   90.6     0    274.9     1.2    999.0   1.93  
 342    1:30    0.0    50   90.8     0      0.0     0.0    999.0   1.94  
 342    1:40    0.0    50   91.0     0    255.9     1.8    999.0   1.97  
 342    1:50    0.0    51   91.4     0    258.4     1.2    999.0   1.96  
 342    2:00    0.0    50   91.2     0      0.0     0.0    999.0   1.90  
 342    2:10    0.0    50   91.4     0      0.0     0.0    999.0   1.93  
 342    2:20    0.0    50   91.5     0    136.7     1.2    999.0   1.99  
 342    2:30    0.0    50   91.6     0      0.0     0.0    999.0   1.94  
 342    2:40    0.0    50   91.8     0    263.2     1.2    999.0   1.90  
 342    2:50    0.0    50   92.0     0      0.0     0.0    999.0   2.00  
 342    3:00    0.0    50   92.1     0    199.4     1.8    999.0   1.98  
 342    3:10    0.0    51   92.3     0      0.0     0.0    999.0   1.94  
 342    3:20    0.0    51   91.9     0      0.0     0.0    999.0   1.96  
 342    3:30    0.0    51   92.1     0    294.7     1.8    999.0   1.95  
 342    3:40    0.0    51   91.8     0      0.0     0.0    999.0   1.95  
 342    3:50    0.0    51   92.0     0      0.0     0.0    999.0   1.92  
 342    4:00    0.0    51   92.2     1    266.7     2.4    999.0   1.99  
 342    4:10    0.0    50   92.0     0      0.0     0.0    999.0   2.00  
 342    4:20    0.0    50   92.3     1    270.0     2.4    999.0   1.99  
 342    4:30    0.0    51   92.4     0    267.2     1.8    999.0   1.89  
 342    4:40    0.0    51   92.5     0    240.4     1.2    999.0   1.92  
 342    4:50    0.0    50   92.5     0      0.0     0.0    999.0   1.89  
 342    5:00    0.0    50   92.6     0      0.0     0.0    999.0   1.95  
 342    5:10    0.0    51   92.8     0    262.8     1.2    999.0   1.95  
 342    5:20    0.0    51   92.5     0    265.4     1.8    999.0   2.00  
 342    5:30    0.0    51   92.3     0    263.5     2.4    999.0   2.00  
 342    5:40    0.0    51   92.3     0      0.0     0.0    999.0   2.00  
 342    5:50    0.0    51   92.4     0    264.9     1.8    999.0   1.98  
 342    6:00    0.0    51   92.4     0    260.9     1.8    999.0   2.00  
 342    6:10    0.0    51   92.4     0      0.0     0.0    999.0   2.00  
 342    6:20    0.0    51   92.6     0    264.8     1.2    999.0   1.97  
 342    6:30    0.0    51   92.4     0    223.6     1.2    999.0   1.95  
 342    6:40    1.0    51   92.7     1    264.1     3.6    999.0   1.96  
 342    6:50    2.0    52   92.6     1    264.0     3.0    999.0   1.93  
 342    7:00    3.0    51   92.4     0      0.0     0.0    999.0   1.94  
 342    7:10    9.0    51   92.7     0    255.0     1.2    999.0   1.92  
 342    7:20   15.0    52   92.8     0    257.9     1.2    999.0   1.98  
 342    7:30   23.0    52   92.8     0    267.2     1.2    999.0   1.98  
 342    7:40   29.0    52   92.8     1    261.1     3.0    999.0   2.00  
 342    7:50   56.0    53   92.8     0    265.0     1.2    999.0   2.00  
 342    8:00  153.0    54   92.5     0      0.0     0.0    999.0   1.84  
 342    8:10  187.0    56   91.5     0      0.0     0.0    999.0   1.88  
 342    8:20  186.0    57   89.4     0     74.8     2.4    999.0   1.97  
 342    8:30  188.0    58   86.9     1    100.3     3.0    999.0   1.98  
 342    8:40  242.0    60   83.4     1    104.5     3.0    999.0   1.97  
 342    8:50  262.0    61   79.1     2    117.5     5.4    999.0   1.98  
 342    9:00  222.0    61   78.7     3    133.6     5.4    999.0   1.92  
 342    9:10  155.0    61   79.7     1    138.3     5.4    999.0   1.98  
 342    9:20  187.0    60   80.6     3    132.0     5.4    999.0   1.96  
 342    9:30  252.0    61   80.7     3    132.8     5.4    999.0   2.00  
 342    9:40  178.0    61   80.6     2    150.1     3.0    999.0   2.00  
 342    9:50  154.0    60   80.8     2    126.1     3.6    999.0   1.99  
 342   10:00  162.0    60   81.6     2    114.1     4.8    999.0   2.00  
 342   10:10  180.0    60   82.0     3    132.1     4.8    999.0   2.00  
 342   10:20  161.0    60   82.2     2    130.4     4.2    999.0   2.00  
 342   10:30  166.0    60   81.8     2    138.0     4.8    999.0   2.00  
 342   10:40  180.0    60   81.5     2    107.5     3.6    999.0   2.00  
 342   10:50  173.0    60   81.3     2    106.3     4.2    999.0   2.00  
 342   11:00  152.0    60   81.6     2     99.3     4.8    999.0   2.00  
 342   11:10  130.0    60   81.5     2     93.6     4.2    999.0   2.00  
 342   11:20  125.0    60   81.7     2     95.1     4.8    999.0   2.00  
 342   11:30  243.0    60   81.0     2    103.9     4.2    999.0   1.98  
 342   11:40  498.0    62   79.1     3    109.8     4.8    999.0   2.00  
 342   11:50  268.0    62   77.7     3    113.9     6.6    999.0   2.00  
 342   12:00  252.0    62   78.9     2     95.1     5.4    999.0   2.00  
 342   12:10  262.0    62   79.7     3     95.8     6.0    999.0   2.00  
 342   12:20  358.0    62   78.2     3     96.2     6.0    999.0   2.00  
 342   12:30  452.0    62   78.3     3    110.2     6.0    999.0   1.99  
 342   12:40  512.0    62   77.4     3    122.6     5.4    999.0   2.00  
 342   12:50  517.0    62   77.4     4    118.3     7.2    999.0   2.00  
 342   13:00  442.0    62   78.0     4    117.4     7.8    999.0   2.00  
 342   13:10  102.0    62   78.7     2    170.7     3.6    999.0   1.98  
 342   13:20  122.0    61   80.3     2    127.9     6.0    999.0   1.99  
 342   13:30  196.0    61   81.2     3     88.2     5.4    999.0   1.98  
 342   13:40  136.0    60   81.6     2    345.2     4.2    999.0   1.98  
 342   13:50  183.0    61   81.8     1    213.4     3.0    999.0   1.99  
 342   14:00  146.0    61   80.6     2    287.8     6.6    999.0   2.00  
 342   14:10   63.0    60   81.4     2    108.5     4.8    999.0   2.00  
 342   14:20   85.0    60   82.6     2     98.9     6.0    999.0   2.00  
 342   14:30  157.0    60   82.2     1    107.5     4.8    999.0   1.96  
 342   14:40   80.0    60   81.7     2    121.5     4.8    999.0   1.96  
 342   14:50   69.0    60   81.9     2    125.0     3.6    999.0   1.98  
 342   15:00   66.0    60   82.2     2    129.3     4.2    999.0   2.00  
 342   15:10   57.0    60   82.8     2    116.0     4.2    999.0   1.98  
 342   15:20   62.0    60   83.1     1    129.2     3.0    999.0   1.98  
 342   15:30   68.0    60   83.2     1     98.7     4.2    999.0   2.00  
 342   15:40   72.0    60   83.0     1     91.2     4.2    999.0   1.98  
 342   15:50   59.0    60   82.8     2    108.9     4.2    999.0   1.98  
 342   16:00   45.0    59   83.0     2    123.1     3.6    999.0   1.96  
 342   16:10   34.0    59   83.4     0    142.0     2.4    999.0   1.99  
 342   16:20   21.0    58   84.0     0    278.2     1.2    999.0   1.88  
 342   16:30   15.0    58   85.2     1    263.3     2.4    999.0   1.95  
 342   16:40    9.0    56   86.2     0      0.0     0.0    999.0   1.85  
 342   16:50    4.0    56   87.2     0    256.9     1.2    999.0   1.95  
 342   17:00    3.0    55   87.9     2    270.9     2.4    999.0   2.00  
 342   17:10    0.0    55   88.5     1    258.5     3.0    999.0   1.98  
 342   17:20    0.0    55   88.7     0    204.8     1.8    999.0   1.97  
 342   17:30    0.0    54   89.0     0    258.9     1.8    999.0   1.97  
 342   17:40    0.0    54   89.6     0    282.8     1.2    999.0   1.95  
 342   17:50    0.0    54   89.9     0      0.0     0.0    999.0   1.93  
 342   18:00    0.0    54   90.0     1    256.5     3.0    999.0   1.98  
 342   18:10    0.0    54   88.9     2    249.7     3.6    999.0   1.97  
 342   18:20    0.0    54   88.1     1    270.1     2.4    999.0   1.98  
 342   18:30    0.0    54   88.1     0    264.3     1.8    999.0   1.99  
 342   18:40    0.0    54   88.1     0      0.0     0.0    999.0   1.94  
 342   18:50    0.0    54   88.1     1    184.6     4.8    999.0   1.95  
 342   19:00    0.0    53   87.7     1    268.6     2.4    999.0   2.00  
 342   19:10    0.0    53   87.5     1    254.3     3.0    999.0   1.98  
 342   19:20    0.0    52   87.2     0    264.9     1.8    999.0   2.00  
 342   19:30    0.0    52   87.6     1    262.8     3.0    999.0   2.00  
 342   19:40    0.0    52   87.0     0    256.8     1.8    999.0   1.98  
 342   19:50    0.0    52   86.8     0    269.5     1.8    999.0   2.00  
 342   20:00    0.0    51   86.8     0      0.0     0.0    999.0   1.93  
 342   20:10    0.0    51   87.1     0    260.5     1.2    999.0   1.97  
 342   20:20    0.0    51   87.3     0    254.5     1.8    999.0   1.95  
 342   20:30    0.0    51   87.2     0      0.0     0.0    999.0   1.99  
 342   20:40    0.0    50   87.2     0    109.2     1.2    999.0   2.00  
 342   20:50    0.0    50   87.1     0    258.9     1.8    999.0   1.90  
 342   21:00    0.0    51   86.9     1    257.6     2.4    999.0   1.99  
 342   21:10    0.0    51   86.0     1    255.7     3.0    999.0   2.00  
 342   21:20    0.0    51   85.3     0    224.2     1.2    999.0   2.00  
 342   21:30    0.0    51   85.8     0    264.4     1.2    999.0   1.97  
 342   21:40    0.0    51   86.2     0      0.0     0.0    999.0   1.90  
 342   21:50    0.0    51   86.3     0    286.5     1.2    999.0   1.96  
 342   22:00    0.0    51   86.2     0     98.5     1.2    999.0   1.98  
 342   22:10    0.0    51   86.9     0    269.2     1.2    999.0   1.97  
 342   22:20    0.0    50   86.9     0    189.1     1.2    999.0   2.00  
 342   22:30    0.0    51   87.0     2    258.7     3.6    999.0   1.95  
 342   22:40    0.0    51   85.5     1    274.6     3.0    999.0   1.99  
 342   22:50    0.0    51   85.3     0    247.6     1.2    999.0   1.90  
 342   23:00    0.0    51   85.7     0    124.3     1.8    999.0   1.97  
 342   23:10    0.0    51   86.4     1    264.0     3.0    999.0   1.93  
 342   23:20    0.0    51   85.9     1    251.3     2.4    999.0   1.99  
 342   23:30    0.0    51   86.2     0    245.3     1.8    999.0   2.00  
 342   23:40    0.0    51   86.9     0    257.6     2.4    999.0   1.88  
 342   23:50    0.0    51   86.9     0      0.0     0.0    999.0   1.97  
 343    0:00    0.0    50   87.7     0    263.8     1.2    999.0   1.94  
 343    0:10    0.0    50   88.0     0    279.0     1.8    999.0   1.96  
 343    0:20    0.0    50   88.0     1    259.2     2.4    999.0   1.98  
 343    0:30    0.0    50   87.6     0    264.7     1.2    999.0   1.99  
 343    0:40    0.0    50   88.0     2    265.0     3.0    999.0   1.92  
 343    0:50    0.0    50   87.4     0      0.0     0.0    999.0   1.86  
 343    1:00    0.0    50   88.0     1    262.0     2.4    999.0   1.97  
 343    1:10    0.0    50   87.8     2    255.6     2.4    999.0   2.00  

Return to Avalon School graphs page.


Western Regional Climate Center,wrcc@dri.edu